sensor_id;sensor_type;location;lat;lon;timestamp;P1;durP1;ratioP1;P2;durP2;ratioP2
65863;SDS011;52639;51.180;20.460;2023-08-24T00:00:44;9.95;;;5.85;;
65863;SDS011;52639;51.180;20.460;2023-08-24T00:09:08;10.48;;;4.70;;
65863;SDS011;52639;51.180;20.460;2023-08-24T00:13:13;9.60;;;5.25;;
65863;SDS011;52639;51.180;20.460;2023-08-24T00:17:16;8.05;;;4.95;;
65863;SDS011;52639;51.180;20.460;2023-08-24T00:21:18;9.48;;;5.22;;
65863;SDS011;52639;51.180;20.460;2023-08-24T00:25:23;8.32;;;5.25;;
65863;SDS011;52639;51.180;20.460;2023-08-24T00:29:27;7.93;;;5.32;;
65863;SDS011;52639;51.180;20.460;2023-08-24T00:33:30;8.68;;;5.43;;
65863;SDS011;52639;51.180;20.460;2023-08-24T00:37:33;10.27;;;5.28;;
65863;SDS011;52639;51.180;20.460;2023-08-24T00:41:36;9.95;;;5.78;;
65863;SDS011;52639;51.180;20.460;2023-08-24T00:45:41;9.75;;;5.05;;
65863;SDS011;52639;51.180;20.460;2023-08-24T00:49:44;9.13;;;5.80;;
65863;SDS011;52639;51.180;20.460;2023-08-24T00:53:46;7.45;;;5.35;;
65863;SDS011;52639;51.180;20.460;2023-08-24T00:57:49;8.07;;;5.05;;
65863;SDS011;52639;51.180;20.460;2023-08-24T01:01:55;6.60;;;4.65;;
65863;SDS011;52639;51.180;20.460;2023-08-24T01:05:58;9.98;;;5.75;;
65863;SDS011;52639;51.180;20.460;2023-08-24T01:10:01;7.97;;;4.97;;
65863;SDS011;52639;51.180;20.460;2023-08-24T01:14:08;8.73;;;4.85;;
65863;SDS011;52639;51.180;20.460;2023-08-24T01:18:17;10.43;;;5.23;;
65863;SDS011;52639;51.180;20.460;2023-08-24T01:22:31;8.07;;;4.70;;
65863;SDS011;52639;51.180;20.460;2023-08-24T01:26:37;7.53;;;4.60;;
65863;SDS011;52639;51.180;20.460;2023-08-24T01:30:43;7.57;;;4.95;;
65863;SDS011;52639;51.180;20.460;2023-08-24T01:34:46;8.50;;;4.80;;
65863;SDS011;52639;51.180;20.460;2023-08-24T01:38:51;8.35;;;4.95;;
65863;SDS011;52639;51.180;20.460;2023-08-24T01:43:02;10.85;;;5.18;;
65863;SDS011;52639;51.180;20.460;2023-08-24T01:47:07;7.70;;;4.82;;
65863;SDS011;52639;51.180;20.460;2023-08-24T01:51:12;8.48;;;5.00;;
65863;SDS011;52639;51.180;20.460;2023-08-24T01:55:17;10.25;;;5.07;;
65863;SDS011;52639;51.180;20.460;2023-08-24T01:59:22;8.15;;;4.95;;
65863;SDS011;52639;51.180;20.460;2023-08-24T02:03:25;7.97;;;5.40;;
65863;SDS011;52639;51.180;20.460;2023-08-24T02:07:27;7.22;;;5.60;;
65863;SDS011;52639;51.180;20.460;2023-08-24T02:11:31;17.55;;;6.50;;
65863;SDS011;52639;51.180;20.460;2023-08-24T02:15:34;13.13;;;5.50;;
65863;SDS011;52639;51.180;20.460;2023-08-24T02:19:37;7.30;;;4.97;;
65863;SDS011;52639;51.180;20.460;2023-08-24T02:23:42;7.32;;;5.07;;
65863;SDS011;52639;51.180;20.460;2023-08-24T02:27:44;10.10;;;5.35;;
65863;SDS011;52639;51.180;20.460;2023-08-24T02:31:50;7.60;;;5.15;;
65863;SDS011;52639;51.180;20.460;2023-08-24T02:35:53;23.88;;;11.52;;
65863;SDS011;52639;51.180;20.460;2023-08-24T02:39:56;11.02;;;6.75;;
65863;SDS011;52639;51.180;20.460;2023-08-24T02:43:59;11.90;;;5.75;;
65863;SDS011;52639;51.180;20.460;2023-08-24T02:48:04;9.55;;;5.97;;
65863;SDS011;52639;51.180;20.460;2023-08-24T02:52:07;11.93;;;6.53;;
65863;SDS011;52639;51.180;20.460;2023-08-24T02:56:10;9.82;;;6.57;;
65863;SDS011;52639;51.180;20.460;2023-08-24T03:00:12;11.00;;;6.40;;
65863;SDS011;52639;51.180;20.460;2023-08-24T03:04:17;10.77;;;6.32;;
65863;SDS011;52639;51.180;20.460;2023-08-24T03:08:20;9.60;;;6.47;;
65863;SDS011;52639;51.180;20.460;2023-08-24T03:12:23;11.32;;;6.22;;
65863;SDS011;52639;51.180;20.460;2023-08-24T03:16:25;10.32;;;6.40;;
65863;SDS011;52639;51.180;20.460;2023-08-24T03:20:30;14.68;;;6.57;;
65863;SDS011;52639;51.180;20.460;2023-08-24T03:24:33;14.30;;;6.30;;
65863;SDS011;52639;51.180;20.460;2023-08-24T03:28:36;13.48;;;7.05;;
65863;SDS011;52639;51.180;20.460;2023-08-24T03:32:39;8.63;;;6.05;;
65863;SDS011;52639;51.180;20.460;2023-08-24T03:36:43;9.38;;;6.03;;
65863;SDS011;52639;51.180;20.460;2023-08-24T03:40:46;10.98;;;7.10;;
65863;SDS011;52639;51.180;20.460;2023-08-24T03:44:49;13.43;;;7.18;;
65863;SDS011;52639;51.180;20.460;2023-08-24T03:48:51;10.60;;;6.88;;
65863;SDS011;52639;51.180;20.460;2023-08-24T03:52:56;11.65;;;7.05;;
65863;SDS011;52639;51.180;20.460;2023-08-24T03:56:58;12.32;;;7.07;;
65863;SDS011;52639;51.180;20.460;2023-08-24T04:01:01;10.63;;;5.95;;
65863;SDS011;52639;51.180;20.460;2023-08-24T04:05:04;9.60;;;5.88;;
65863;SDS011;52639;51.180;20.460;2023-08-24T04:09:09;10.25;;;6.15;;
65863;SDS011;52639;51.180;20.460;2023-08-24T04:13:11;12.77;;;6.40;;
65863;SDS011;52639;51.180;20.460;2023-08-24T04:17:14;10.30;;;6.05;;
65863;SDS011;52639;51.180;20.460;2023-08-24T04:21:17;8.73;;;5.85;;
65863;SDS011;52639;51.180;20.460;2023-08-24T04:25:21;10.52;;;5.57;;
65863;SDS011;52639;51.180;20.460;2023-08-24T04:29:24;8.50;;;5.82;;
65863;SDS011;52639;51.180;20.460;2023-08-24T04:33:27;10.80;;;5.45;;
65863;SDS011;52639;51.180;20.460;2023-08-24T04:37:30;10.18;;;4.95;;
65863;SDS011;52639;51.180;20.460;2023-08-24T04:41:35;10.25;;;5.47;;
65863;SDS011;52639;51.180;20.460;2023-08-24T04:45:37;8.88;;;4.60;;
65863;SDS011;52639;51.180;20.460;2023-08-24T04:49:40;11.48;;;4.38;;
65863;SDS011;52639;51.180;20.460;2023-08-24T04:53:43;9.80;;;4.32;;
65863;SDS011;52639;51.180;20.460;2023-08-24T04:57:47;11.77;;;4.65;;
65863;SDS011;52639;51.180;20.460;2023-08-24T05:01:50;7.35;;;3.83;;
65863;SDS011;52639;51.180;20.460;2023-08-24T05:05:52;19.33;;;3.92;;
65863;SDS011;52639;51.180;20.460;2023-08-24T05:09:55;6.85;;;3.50;;
65863;SDS011;52639;51.180;20.460;2023-08-24T05:14:00;13.52;;;3.63;;
65863;SDS011;52639;51.180;20.460;2023-08-24T05:18:03;19.00;;;3.50;;
65863;SDS011;52639;51.180;20.460;2023-08-24T05:22:06;17.90;;;3.45;;
65863;SDS011;52639;51.180;20.460;2023-08-24T05:26:09;13.70;;;3.80;;
65863;SDS011;52639;51.180;20.460;2023-08-24T05:30:18;8.85;;;3.20;;
65863;SDS011;52639;51.180;20.460;2023-08-24T05:34:25;14.23;;;3.35;;
65863;SDS011;52639;51.180;20.460;2023-08-24T05:38:31;8.63;;;3.17;;
65863;SDS011;52639;51.180;20.460;2023-08-24T05:42:34;10.80;;;3.47;;
65863;SDS011;52639;51.180;20.460;2023-08-24T05:46:39;12.23;;;3.47;;
65863;SDS011;52639;51.180;20.460;2023-08-24T05:50:42;7.15;;;3.33;;
65863;SDS011;52639;51.180;20.460;2023-08-24T05:54:45;6.00;;;3.15;;
65863;SDS011;52639;51.180;20.460;2023-08-24T05:58:48;7.13;;;3.60;;
65863;SDS011;52639;51.180;20.460;2023-08-24T06:02:53;8.88;;;3.38;;
65863;SDS011;52639;51.180;20.460;2023-08-24T06:06:56;11.45;;;3.28;;
65863;SDS011;52639;51.180;20.460;2023-08-24T06:10:59;8.73;;;3.78;;
65863;SDS011;52639;51.180;20.460;2023-08-24T06:15:02;6.72;;;3.05;;
65863;SDS011;52639;51.180;20.460;2023-08-24T06:19:07;9.52;;;3.38;;
65863;SDS011;52639;51.180;20.460;2023-08-24T06:23:10;6.70;;;3.60;;
65863;SDS011;52639;51.180;20.460;2023-08-24T06:27:14;8.45;;;3.38;;
65863;SDS011;52639;51.180;20.460;2023-08-24T06:31:16;7.78;;;3.10;;
65863;SDS011;52639;51.180;20.460;2023-08-24T06:35:21;6.55;;;2.53;;
65863;SDS011;52639;51.180;20.460;2023-08-24T06:39:24;6.78;;;2.80;;
65863;SDS011;52639;51.180;20.460;2023-08-24T06:43:27;5.22;;;2.17;;
65863;SDS011;52639;51.180;20.460;2023-08-24T06:47:30;4.03;;;2.08;;
65863;SDS011;52639;51.180;20.460;2023-08-24T06:51:34;4.75;;;2.17;;
65863;SDS011;52639;51.180;20.460;2023-08-24T06:55:38;3.60;;;2.00;;
65863;SDS011;52639;51.180;20.460;2023-08-24T06:59:41;4.00;;;2.03;;
65863;SDS011;52639;51.180;20.460;2023-08-24T07:03:44;5.72;;;2.15;;
65863;SDS011;52639;51.180;20.460;2023-08-24T07:07:49;4.65;;;2.28;;
65863;SDS011;52639;51.180;20.460;2023-08-24T07:11:52;3.40;;;2.00;;
65863;SDS011;52639;51.180;20.460;2023-08-24T07:15:57;4.13;;;1.95;;
65863;SDS011;52639;51.180;20.460;2023-08-24T07:20:00;4.90;;;2.10;;
65863;SDS011;52639;51.180;20.460;2023-08-24T07:24:07;3.65;;;2.03;;
65863;SDS011;52639;51.180;20.460;2023-08-24T07:28:10;3.67;;;1.85;;
65863;SDS011;52639;51.180;20.460;2023-08-24T07:32:13;4.35;;;2.05;;
65863;SDS011;52639;51.180;20.460;2023-08-24T07:36:16;4.53;;;2.10;;
65863;SDS011;52639;51.180;20.460;2023-08-24T07:40:21;6.70;;;2.17;;
65863;SDS011;52639;51.180;20.460;2023-08-24T07:44:24;7.07;;;2.40;;
65863;SDS011;52639;51.180;20.460;2023-08-24T07:48:27;3.70;;;2.25;;
65863;SDS011;52639;51.180;20.460;2023-08-24T07:52:30;4.47;;;2.28;;
65863;SDS011;52639;51.180;20.460;2023-08-24T07:56:34;5.55;;;2.00;;
65863;SDS011;52639;51.180;20.460;2023-08-24T08:00:37;3.40;;;2.10;;
65863;SDS011;52639;51.180;20.460;2023-08-24T08:04:40;3.65;;;2.10;;
65863;SDS011;52639;51.180;20.460;2023-08-24T08:08:43;5.97;;;2.20;;
65863;SDS011;52639;51.180;20.460;2023-08-24T08:12:49;3.80;;;1.98;;
65863;SDS011;52639;51.180;20.460;2023-08-24T08:16:51;3.20;;;1.70;;
65863;SDS011;52639;51.180;20.460;2023-08-24T08:20:54;3.85;;;2.10;;
65863;SDS011;52639;51.180;20.460;2023-08-24T08:24:57;5.55;;;1.90;;
65863;SDS011;52639;51.180;20.460;2023-08-24T08:29:01;3.38;;;2.03;;
65863;SDS011;52639;51.180;20.460;2023-08-24T08:33:04;3.70;;;1.50;;
65863;SDS011;52639;51.180;20.460;2023-08-24T08:37:07;5.50;;;2.00;;
65863;SDS011;52639;51.180;20.460;2023-08-24T08:41:10;4.47;;;2.10;;
65863;SDS011;52639;51.180;20.460;2023-08-24T08:45:14;4.00;;;2.17;;
65863;SDS011;52639;51.180;20.460;2023-08-24T08:49:20;2.38;;;1.50;;
65863;SDS011;52639;51.180;20.460;2023-08-24T08:53:23;2.83;;;1.73;;
65863;SDS011;52639;51.180;20.460;2023-08-24T08:57:26;6.22;;;1.80;;
65863;SDS011;52639;51.180;20.460;2023-08-24T09:01:31;4.03;;;1.95;;
65863;SDS011;52639;51.180;20.460;2023-08-24T09:05:35;5.05;;;1.70;;
65863;SDS011;52639;51.180;20.460;2023-08-24T09:09:39;6.38;;;2.13;;
65863;SDS011;52639;51.180;20.460;2023-08-24T09:13:42;6.20;;;2.30;;
65863;SDS011;52639;51.180;20.460;2023-08-24T09:17:48;4.38;;;2.20;;
65863;SDS011;52639;51.180;20.460;2023-08-24T09:21:54;4.68;;;2.00;;
65863;SDS011;52639;51.180;20.460;2023-08-24T09:25:59;4.60;;;1.70;;
65863;SDS011;52639;51.180;20.460;2023-08-24T09:30:02;4.70;;;1.90;;
65863;SDS011;52639;51.180;20.460;2023-08-24T09:34:08;3.45;;;2.00;;
65863;SDS011;52639;51.180;20.460;2023-08-24T09:38:17;4.43;;;2.08;;
65863;SDS011;52639;51.180;20.460;2023-08-24T09:46:26;3.38;;;1.98;;
65863;SDS011;52639;51.180;20.460;2023-08-24T09:50:31;2.85;;;1.90;;
65863;SDS011;52639;51.180;20.460;2023-08-24T09:54:36;2.55;;;1.88;;
65863;SDS011;52639;51.180;20.460;2023-08-24T09:58:40;3.13;;;1.83;;
65863;SDS011;52639;51.180;20.460;2023-08-24T10:02:46;4.35;;;2.00;;
65863;SDS011;52639;51.180;20.460;2023-08-24T10:06:55;3.60;;;1.90;;
65863;SDS011;52639;51.180;20.460;2023-08-24T10:11:00;3.95;;;2.10;;
65863;SDS011;52639;51.180;20.460;2023-08-24T10:15:03;9.82;;;2.58;;
65863;SDS011;52639;51.180;20.460;2023-08-24T10:19:16;7.65;;;2.53;;
65863;SDS011;52639;51.180;20.460;2023-08-24T10:23:23;5.28;;;2.25;;
65863;SDS011;52639;51.180;20.460;2023-08-24T10:27:34;3.42;;;2.35;;
65863;SDS011;52639;51.180;20.460;2023-08-24T10:31:39;2.97;;;1.90;;
65863;SDS011;52639;51.180;20.460;2023-08-24T10:35:43;4.38;;;2.20;;
65863;SDS011;52639;51.180;20.460;2023-08-24T10:39:54;7.03;;;2.43;;
65863;SDS011;52639;51.180;20.460;2023-08-24T10:44:04;2.58;;;1.90;;
65863;SDS011;52639;51.180;20.460;2023-08-24T10:48:10;4.27;;;1.90;;
65863;SDS011;52639;51.180;20.460;2023-08-24T10:52:17;2.35;;;1.80;;
65863;SDS011;52639;51.180;20.460;2023-08-24T10:56:30;5.63;;;2.03;;
65863;SDS011;52639;51.180;20.460;2023-08-24T11:00:34;5.68;;;2.13;;
65863;SDS011;52639;51.180;20.460;2023-08-24T11:04:37;5.93;;;2.35;;
65863;SDS011;52639;51.180;20.460;2023-08-24T11:08:43;6.35;;;2.13;;
65863;SDS011;52639;51.180;20.460;2023-08-24T11:17:26;5.70;;;2.10;;
65863;SDS011;52639;51.180;20.460;2023-08-24T11:21:33;3.53;;;2.30;;
65863;SDS011;52639;51.180;20.460;2023-08-24T11:25:37;4.05;;;2.17;;
65863;SDS011;52639;51.180;20.460;2023-08-24T11:29:42;4.18;;;2.45;;
65863;SDS011;52639;51.180;20.460;2023-08-24T11:33:45;4.28;;;2.10;;
65863;SDS011;52639;51.180;20.460;2023-08-24T11:37:50;5.03;;;2.58;;
65863;SDS011;52639;51.180;20.460;2023-08-24T11:41:57;3.58;;;2.40;;
65863;SDS011;52639;51.180;20.460;2023-08-24T11:46:02;4.45;;;2.63;;
65863;SDS011;52639;51.180;20.460;2023-08-24T11:50:07;5.18;;;2.97;;
65863;SDS011;52639;51.180;20.460;2023-08-24T11:54:16;3.35;;;2.33;;
65863;SDS011;52639;51.180;20.460;2023-08-24T11:58:21;4.88;;;2.47;;
65863;SDS011;52639;51.180;20.460;2023-08-24T12:02:32;6.10;;;2.40;;
65863;SDS011;52639;51.180;20.460;2023-08-24T12:06:36;3.65;;;2.60;;
65863;SDS011;52639;51.180;20.460;2023-08-24T12:10:44;6.78;;;2.40;;
65863;SDS011;52639;51.180;20.460;2023-08-24T12:14:47;3.72;;;2.90;;
65863;SDS011;52639;51.180;20.460;2023-08-24T12:18:53;3.50;;;2.58;;
65863;SDS011;52639;51.180;20.460;2023-08-24T12:22:56;8.60;;;2.83;;
65863;SDS011;52639;51.180;20.460;2023-08-24T12:27:01;3.67;;;2.40;;
65863;SDS011;52639;51.180;20.460;2023-08-24T12:31:05;5.43;;;2.60;;
65863;SDS011;52639;51.180;20.460;2023-08-24T12:35:10;5.50;;;2.63;;
65863;SDS011;52639;51.180;20.460;2023-08-24T12:39:22;4.97;;;3.20;;
65863;SDS011;52639;51.180;20.460;2023-08-24T12:43:25;4.05;;;2.85;;
65863;SDS011;52639;51.180;20.460;2023-08-24T12:47:28;5.07;;;2.78;;
65863;SDS011;52639;51.180;20.460;2023-08-24T12:51:33;5.75;;;2.78;;
65863;SDS011;52639;51.180;20.460;2023-08-24T12:55:36;5.53;;;2.72;;
65863;SDS011;52639;51.180;20.460;2023-08-24T12:59:41;4.20;;;2.80;;
65863;SDS011;52639;51.180;20.460;2023-08-24T13:03:44;3.95;;;2.58;;
65863;SDS011;52639;51.180;20.460;2023-08-24T13:07:48;6.10;;;2.85;;
65863;SDS011;52639;51.180;20.460;2023-08-24T13:11:51;4.47;;;2.80;;
65863;SDS011;52639;51.180;20.460;2023-08-24T13:15:54;7.53;;;2.83;;
65863;SDS011;52639;51.180;20.460;2023-08-24T13:19:57;4.78;;;2.60;;
65863;SDS011;52639;51.180;20.460;2023-08-24T13:24:02;4.88;;;2.85;;
65863;SDS011;52639;51.180;20.460;2023-08-24T13:28:05;4.88;;;2.92;;
65863;SDS011;52639;51.180;20.460;2023-08-24T13:32:08;8.38;;;3.55;;
65863;SDS011;52639;51.180;20.460;2023-08-24T13:36:11;3.58;;;2.45;;
65863;SDS011;52639;51.180;20.460;2023-08-24T13:40:16;6.82;;;3.38;;
65863;SDS011;52639;51.180;20.460;2023-08-24T13:44:19;7.35;;;2.72;;
65863;SDS011;52639;51.180;20.460;2023-08-24T13:48:22;5.28;;;2.95;;
65863;SDS011;52639;51.180;20.460;2023-08-24T13:52:26;3.78;;;2.70;;
65863;SDS011;52639;51.180;20.460;2023-08-24T13:56:30;11.65;;;3.50;;
65863;SDS011;52639;51.180;20.460;2023-08-24T14:00:33;4.65;;;3.00;;
65863;SDS011;52639;51.180;20.460;2023-08-24T14:04:36;6.20;;;2.92;;
65863;SDS011;52639;51.180;20.460;2023-08-24T14:08:40;8.10;;;2.67;;
65863;SDS011;52639;51.180;20.460;2023-08-24T14:12:44;4.78;;;3.13;;
65863;SDS011;52639;51.180;20.460;2023-08-24T14:16:49;6.50;;;3.22;;
65863;SDS011;52639;51.180;20.460;2023-08-24T14:20:57;4.93;;;3.00;;
65863;SDS011;52639;51.180;20.460;2023-08-24T14:24:59;6.38;;;3.00;;
65863;SDS011;52639;51.180;20.460;2023-08-24T14:29:04;9.52;;;3.10;;
65863;SDS011;52639;51.180;20.460;2023-08-24T14:33:07;5.82;;;3.38;;
65863;SDS011;52639;51.180;20.460;2023-08-24T14:37:10;7.07;;;2.90;;
65863;SDS011;52639;51.180;20.460;2023-08-24T14:41:13;5.13;;;2.90;;
65863;SDS011;52639;51.180;20.460;2023-08-24T14:45:18;5.82;;;3.00;;
65863;SDS011;52639;51.180;20.460;2023-08-24T14:49:21;6.63;;;2.90;;
65863;SDS011;52639;51.180;20.460;2023-08-24T14:53:25;10.13;;;3.00;;
65863;SDS011;52639;51.180;20.460;2023-08-24T14:57:30;8.85;;;3.38;;
65863;SDS011;52639;51.180;20.460;2023-08-24T15:01:37;7.22;;;3.13;;
65863;SDS011;52639;51.180;20.460;2023-08-24T15:05:42;6.32;;;3.45;;
65863;SDS011;52639;51.180;20.460;2023-08-24T15:09:46;6.43;;;3.40;;
65863;SDS011;52639;51.180;20.460;2023-08-24T15:13:49;6.03;;;3.10;;
65863;SDS011;52639;51.180;20.460;2023-08-24T15:17:54;6.43;;;3.13;;
65863;SDS011;52639;51.180;20.460;2023-08-24T15:21:57;6.32;;;3.22;;
65863;SDS011;52639;51.180;20.460;2023-08-24T15:26:01;10.23;;;3.40;;
65863;SDS011;52639;51.180;20.460;2023-08-24T15:30:05;7.38;;;3.33;;
65863;SDS011;52639;51.180;20.460;2023-08-24T15:34:10;8.70;;;3.30;;
65863;SDS011;52639;51.180;20.460;2023-08-24T15:38:13;7.18;;;3.88;;
65863;SDS011;52639;51.180;20.460;2023-08-24T15:42:16;8.85;;;3.35;;
65863;SDS011;52639;51.180;20.460;2023-08-24T15:46:19;6.88;;;3.60;;
65863;SDS011;52639;51.180;20.460;2023-08-24T15:50:35;6.63;;;3.40;;
65863;SDS011;52639;51.180;20.460;2023-08-24T15:54:38;4.32;;;3.08;;
65863;SDS011;52639;51.180;20.460;2023-08-24T15:58:41;4.63;;;3.38;;
65863;SDS011;52639;51.180;20.460;2023-08-24T16:02:45;4.20;;;3.05;;
65863;SDS011;52639;51.180;20.460;2023-08-24T16:06:50;4.50;;;3.10;;
65863;SDS011;52639;51.180;20.460;2023-08-24T16:10:55;5.38;;;3.22;;
65863;SDS011;52639;51.180;20.460;2023-08-24T16:15:02;8.05;;;3.40;;
65863;SDS011;52639;51.180;20.460;2023-08-24T16:19:06;6.40;;;3.30;;
65863;SDS011;52639;51.180;20.460;2023-08-24T16:40:53;6.78;;;4.05;;
65863;SDS011;52639;51.180;20.460;2023-08-24T16:44:56;7.38;;;4.32;;
65863;SDS011;52639;51.180;20.460;2023-08-24T16:48:59;8.10;;;4.10;;
65863;SDS011;52639;51.180;20.460;2023-08-24T16:53:02;8.60;;;4.03;;
65863;SDS011;52639;51.180;20.460;2023-08-24T16:57:07;8.93;;;4.85;;
65863;SDS011;52639;51.180;20.460;2023-08-24T17:01:10;8.95;;;5.10;;
65863;SDS011;52639;51.180;20.460;2023-08-24T17:05:14;9.18;;;5.45;;
65863;SDS011;52639;51.180;20.460;2023-08-24T17:09:18;8.95;;;5.45;;
65863;SDS011;52639;51.180;20.460;2023-08-24T17:13:23;10.07;;;6.28;;
65863;SDS011;52639;51.180;20.460;2023-08-24T17:17:26;8.60;;;5.97;;
65863;SDS011;52639;51.180;20.460;2023-08-24T17:21:32;14.70;;;9.20;;
65863;SDS011;52639;51.180;20.460;2023-08-24T17:26:15;12.18;;;7.25;;
65863;SDS011;52639;51.180;20.460;2023-08-24T17:30:20;19.63;;;10.95;;
65863;SDS011;52639;51.180;20.460;2023-08-24T17:34:24;26.83;;;11.13;;
65863;SDS011;52639;51.180;20.460;2023-08-24T17:38:28;11.85;;;8.15;;
65863;SDS011;52639;51.180;20.460;2023-08-24T17:42:31;13.98;;;8.63;;
65863;SDS011;52639;51.180;20.460;2023-08-24T17:46:36;12.63;;;8.90;;
65863;SDS011;52639;51.180;20.460;2023-08-24T17:50:39;15.35;;;10.25;;
65863;SDS011;52639;51.180;20.460;2023-08-24T17:54:43;14.88;;;7.88;;
65863;SDS011;52639;51.180;20.460;2023-08-24T17:58:48;21.95;;;11.93;;
65863;SDS011;52639;51.180;20.460;2023-08-24T18:02:54;13.70;;;8.65;;
65863;SDS011;52639;51.180;20.460;2023-08-24T18:06:58;9.75;;;7.03;;
65863;SDS011;52639;51.180;20.460;2023-08-24T18:11:03;16.70;;;9.30;;
65863;SDS011;52639;51.180;20.460;2023-08-24T18:15:07;18.48;;;10.10;;
65863;SDS011;52639;51.180;20.460;2023-08-24T18:19:13;21.73;;;11.77;;
65863;SDS011;52639;51.180;20.460;2023-08-24T18:23:17;19.85;;;12.38;;
65863;SDS011;52639;51.180;20.460;2023-08-24T18:27:23;21.98;;;13.82;;
65863;SDS011;52639;51.180;20.460;2023-08-24T18:31:27;11.88;;;9.02;;
65863;SDS011;52639;51.180;20.460;2023-08-24T18:35:32;13.35;;;9.05;;
65863;SDS011;52639;51.180;20.460;2023-08-24T18:39:36;10.05;;;8.38;;
65863;SDS011;52639;51.180;20.460;2023-08-24T18:43:40;12.07;;;7.95;;
65863;SDS011;52639;51.180;20.460;2023-08-24T18:47:45;18.60;;;10.68;;
65863;SDS011;52639;51.180;20.460;2023-08-24T18:51:50;14.90;;;11.07;;
65863;SDS011;52639;51.180;20.460;2023-08-24T18:55:58;16.08;;;11.95;;
65863;SDS011;52639;51.180;20.460;2023-08-24T19:00:03;15.15;;;12.40;;
65863;SDS011;52639;51.180;20.460;2023-08-24T19:04:07;14.38;;;12.85;;
65863;SDS011;52639;51.180;20.460;2023-08-24T19:08:12;16.45;;;13.77;;
65863;SDS011;52639;51.180;20.460;2023-08-24T19:12:18;70.55;;;27.70;;
65863;SDS011;52639;51.180;20.460;2023-08-24T19:16:21;18.23;;;12.65;;
65863;SDS011;52639;51.180;20.460;2023-08-24T19:20:26;18.13;;;11.88;;
65863;SDS011;52639;51.180;20.460;2023-08-24T19:24:31;15.18;;;10.32;;
65863;SDS011;52639;51.180;20.460;2023-08-24T19:28:36;13.68;;;10.77;;
65863;SDS011;52639;51.180;20.460;2023-08-24T19:32:39;12.10;;;9.82;;
65863;SDS011;52639;51.180;20.460;2023-08-24T19:36:44;13.32;;;10.23;;
65863;SDS011;52639;51.180;20.460;2023-08-24T19:40:50;17.55;;;12.23;;
65863;SDS011;52639;51.180;20.460;2023-08-24T19:44:54;12.55;;;10.43;;
65863;SDS011;52639;51.180;20.460;2023-08-24T19:48:58;11.18;;;9.05;;
65863;SDS011;52639;51.180;20.460;2023-08-24T19:53:04;13.95;;;10.80;;
65863;SDS011;52639;51.180;20.460;2023-08-24T19:57:11;13.63;;;10.90;;
65863;SDS011;52639;51.180;20.460;2023-08-24T20:01:17;15.48;;;10.77;;
65863;SDS011;52639;51.180;20.460;2023-08-24T20:05:23;14.35;;;11.05;;
65863;SDS011;52639;51.180;20.460;2023-08-24T20:09:27;15.32;;;10.65;;
65863;SDS011;52639;51.180;20.460;2023-08-24T20:13:34;13.55;;;10.43;;
65863;SDS011;52639;51.180;20.460;2023-08-24T20:17:39;16.23;;;11.60;;
65863;SDS011;52639;51.180;20.460;2023-08-24T20:21:45;17.63;;;12.30;;
65863;SDS011;52639;51.180;20.460;2023-08-24T20:25:49;15.18;;;11.73;;
65863;SDS011;52639;51.180;20.460;2023-08-24T20:29:55;14.93;;;13.02;;
65863;SDS011;52639;51.180;20.460;2023-08-24T20:33:59;15.10;;;12.20;;
65863;SDS011;52639;51.180;20.460;2023-08-24T20:38:03;14.23;;;11.73;;
65863;SDS011;52639;51.180;20.460;2023-08-24T20:42:12;14.32;;;11.38;;
65863;SDS011;52639;51.180;20.460;2023-08-24T20:46:18;14.10;;;11.25;;
65863;SDS011;52639;51.180;20.460;2023-08-24T20:50:21;13.00;;;10.68;;
65863;SDS011;52639;51.180;20.460;2023-08-24T20:54:25;13.63;;;10.82;;
65863;SDS011;52639;51.180;20.460;2023-08-24T20:58:28;14.90;;;12.02;;
65863;SDS011;52639;51.180;20.460;2023-08-24T21:02:33;17.42;;;12.60;;
65863;SDS011;52639;51.180;20.460;2023-08-24T21:06:36;16.33;;;12.98;;
65863;SDS011;52639;51.180;20.460;2023-08-24T21:10:40;15.68;;;11.98;;
65863;SDS011;52639;51.180;20.460;2023-08-24T21:14:43;16.95;;;12.60;;
65863;SDS011;52639;51.180;20.460;2023-08-24T21:18:47;16.83;;;12.93;;
65863;SDS011;52639;51.180;20.460;2023-08-24T21:22:50;14.20;;;11.65;;
65863;SDS011;52639;51.180;20.460;2023-08-24T21:26:53;18.02;;;13.10;;
65863;SDS011;52639;51.180;20.460;2023-08-24T21:30:58;20.67;;;14.25;;
65863;SDS011;52639;51.180;20.460;2023-08-24T21:35:05;19.25;;;13.70;;
65863;SDS011;52639;51.180;20.460;2023-08-24T21:39:08;18.98;;;13.75;;
65863;SDS011;52639;51.180;20.460;2023-08-24T21:43:12;20.15;;;14.55;;
65863;SDS011;52639;51.180;20.460;2023-08-24T21:47:15;16.98;;;12.82;;
65863;SDS011;52639;51.180;20.460;2023-08-24T21:51:20;19.05;;;13.40;;
65863;SDS011;52639;51.180;20.460;2023-08-24T21:55:23;17.50;;;12.27;;
65863;SDS011;52639;51.180;20.460;2023-08-24T21:59:26;17.38;;;12.27;;
65863;SDS011;52639;51.180;20.460;2023-08-24T22:03:30;16.27;;;12.68;;
65863;SDS011;52639;51.180;20.460;2023-08-24T22:07:34;18.23;;;13.07;;
65863;SDS011;52639;51.180;20.460;2023-08-24T22:11:38;21.15;;;13.52;;
65863;SDS011;52639;51.180;20.460;2023-08-24T22:15:41;16.50;;;12.13;;
65863;SDS011;52639;51.180;20.460;2023-08-24T22:19:44;20.45;;;12.50;;
65863;SDS011;52639;51.180;20.460;2023-08-24T22:23:48;20.27;;;13.18;;
65863;SDS011;52639;51.180;20.460;2023-08-24T22:27:52;17.60;;;13.27;;
65863;SDS011;52639;51.180;20.460;2023-08-24T22:31:56;16.38;;;12.85;;
65863;SDS011;52639;51.180;20.460;2023-08-24T22:35:59;20.45;;;13.13;;
65863;SDS011;52639;51.180;20.460;2023-08-24T22:40:04;16.48;;;13.75;;
65863;SDS011;52639;51.180;20.460;2023-08-24T22:44:09;17.65;;;13.75;;
65863;SDS011;52639;51.180;20.460;2023-08-24T22:48:13;17.90;;;14.63;;
65863;SDS011;52639;51.180;20.460;2023-08-24T22:52:15;21.50;;;14.65;;
65863;SDS011;52639;51.180;20.460;2023-08-24T22:56:20;19.02;;;13.95;;
65863;SDS011;52639;51.180;20.460;2023-08-24T23:00:23;16.73;;;13.02;;
65863;SDS011;52639;51.180;20.460;2023-08-24T23:04:25;15.45;;;12.50;;
65863;SDS011;52639;51.180;20.460;2023-08-24T23:08:28;15.05;;;11.82;;
65863;SDS011;52639;51.180;20.460;2023-08-24T23:12:33;16.85;;;11.95;;
65863;SDS011;52639;51.180;20.460;2023-08-24T23:16:35;15.73;;;12.40;;
65863;SDS011;52639;51.180;20.460;2023-08-24T23:20:39;17.05;;;11.68;;
65863;SDS011;52639;51.180;20.460;2023-08-24T23:24:42;14.80;;;12.70;;
65863;SDS011;52639;51.180;20.460;2023-08-24T23:28:46;16.83;;;12.20;;
65863;SDS011;52639;51.180;20.460;2023-08-24T23:32:48;17.13;;;13.02;;
65863;SDS011;52639;51.180;20.460;2023-08-24T23:36:51;16.55;;;12.65;;
65863;SDS011;52639;51.180;20.460;2023-08-24T23:40:56;17.40;;;12.25;;
65863;SDS011;52639;51.180;20.460;2023-08-24T23:45:01;17.77;;;13.50;;
65863;SDS011;52639;51.180;20.460;2023-08-24T23:49:04;19.60;;;13.77;;
65863;SDS011;52639;51.180;20.460;2023-08-24T23:53:07;17.02;;;12.32;;
65863;SDS011;52639;51.180;20.460;2023-08-24T23:57:10;15.27;;;11.95;;
